createdAt,value
2022-09-14T00:01:30.125Z,87.72
2022-09-14T00:03:32.795Z,88.17
2022-09-14T00:05:36.293Z,88.22
2022-09-14T00:07:38.878Z,88.79
2022-09-14T00:09:41.663Z,89.70
2022-09-14T00:11:44.371Z,89.26
2022-09-14T00:13:48.200Z,88.56
2022-09-14T00:15:52.008Z,89.20
2022-09-14T00:17:55.997Z,88.09
2022-09-14T00:19:58.775Z,87.24
2022-09-14T00:22:01.460Z,88.64
2022-09-14T00:24:05.028Z,87.91
2022-09-14T00:26:10.535Z,88.06
2022-09-14T00:28:13.250Z,88.74
2022-09-14T00:30:15.940Z,88.69
2022-09-14T00:32:18.519Z,90.92
2022-09-14T00:34:22.556Z,91.65
2022-09-14T00:36:27.103Z,91.72
2022-09-14T00:38:29.692Z,90.98
2022-09-14T00:40:32.325Z,90.67
2022-09-14T00:42:34.919Z,90.82
2022-09-14T00:45:00.709Z,92.80
2022-09-14T00:47:03.786Z,91.91
2022-09-14T00:49:08.902Z,93.38
2022-09-14T00:51:13.074Z,94.63
2022-09-14T00:53:15.671Z,93.37
2022-09-14T00:55:22.690Z,92.47
2022-09-14T00:57:27.321Z,92.84
2022-09-14T00:59:32.332Z,92.77
2022-09-14T01:01:35.258Z,91.89
2022-09-14T01:03:38.338Z,92.15
2022-09-14T01:05:51.516Z,90.61
2022-09-14T01:08:05.424Z,91.76
2022-09-14T01:10:19.346Z,92.13
2022-09-14T01:12:30.809Z,92.36
2022-09-14T01:14:42.356Z,92.04
2022-09-14T01:16:52.936Z,90.96
2022-09-14T01:18:58.618Z,93.57
2022-09-14T01:21:05.037Z,94.27
2022-09-14T01:23:18.215Z,98.53
2022-09-14T01:25:42.938Z,99.92
2022-09-14T01:27:47.731Z,100.00
2022-09-14T01:29:57.309Z,100.00
2022-09-14T01:32:04.667Z,100.00
2022-09-14T01:34:13.171Z,100.00
2022-09-14T01:36:17.250Z,100.00
2022-09-14T01:38:23.268Z,100.00
2022-09-14T01:40:29.352Z,100.00
2022-09-14T01:42:34.356Z,100.00
2022-09-14T01:44:41.963Z,100.00
2022-09-14T01:46:49.520Z,100.00
2022-09-14T01:48:56.499Z,100.00
2022-09-14T01:51:02.396Z,100.00
2022-09-14T01:53:09.792Z,100.00
2022-09-14T01:55:17.530Z,100.00
2022-09-14T01:57:24.517Z,100.00
2022-09-14T01:59:30.270Z,100.00
2022-09-14T02:01:38.094Z,100.00
2022-09-14T02:03:47.342Z,100.00
2022-09-14T02:05:57.065Z,100.00
2022-09-14T02:07:59.927Z,100.00
2022-09-14T02:10:03.724Z,100.00
2022-09-14T02:12:07.055Z,100.00
2022-09-14T02:14:09.835Z,100.00
2022-09-14T02:16:13.210Z,100.00
2022-09-14T02:18:17.262Z,100.00
2022-09-14T02:20:28.880Z,100.00
2022-09-14T02:22:32.533Z,100.00
2022-09-14T02:24:35.963Z,100.00
2022-09-14T02:26:40.164Z,100.00
2022-09-14T02:28:43.018Z,100.00
2022-09-14T02:30:53.275Z,100.00
2022-09-14T02:33:08.329Z,100.00
2022-09-14T02:35:19.719Z,100.00
2022-09-14T02:37:31.534Z,100.00
2022-09-14T02:39:45.527Z,100.00
2022-09-14T02:41:52.401Z,100.00
2022-09-14T02:44:01.550Z,100.00
2022-09-14T02:46:15.109Z,100.00
2022-09-14T02:48:24.550Z,100.00
2022-09-14T02:50:36.828Z,100.00
2022-09-14T02:52:41.856Z,100.00
2022-09-14T02:54:51.270Z,100.00
2022-09-14T02:56:53.876Z,100.00
2022-09-14T02:58:57.121Z,100.00
2022-09-14T03:00:59.843Z,100.00
2022-09-14T03:03:02.513Z,100.00
2022-09-14T03:05:05.982Z,100.00
2022-09-14T03:07:10.133Z,100.00
2022-09-14T03:09:12.732Z,100.00
2022-09-14T03:11:15.350Z,100.00
2022-09-14T03:13:18.183Z,100.00
2022-09-14T03:15:20.983Z,100.00
2022-09-14T03:17:23.579Z,100.00
2022-09-14T03:19:26.236Z,100.00
2022-09-14T03:21:28.872Z,100.00
2022-09-14T03:23:36.950Z,100.00
2022-09-14T03:25:41.324Z,100.00
2022-09-14T03:27:44.934Z,100.00
2022-09-14T03:29:48.197Z,100.00
2022-09-14T03:31:50.823Z,100.00
2022-09-14T03:33:54.970Z,100.00
2022-09-14T03:35:57.580Z,100.00
2022-09-14T03:38:00.890Z,100.00
2022-09-14T03:40:06.111Z,100.00
2022-09-14T03:42:08.911Z,100.00
2022-09-14T03:44:11.692Z,100.00
2022-09-14T03:46:16.256Z,100.00
2022-09-14T03:48:18.889Z,100.00
2022-09-14T03:50:21.492Z,100.00
2022-09-14T03:52:24.064Z,100.00
2022-09-14T03:54:26.738Z,100.00
2022-09-14T03:56:30.880Z,100.00
2022-09-14T03:58:33.553Z,100.00
2022-09-14T04:00:36.190Z,100.00
2022-09-14T04:02:38.905Z,100.00
2022-09-14T04:04:41.497Z,100.00
2022-09-14T04:06:44.119Z,100.00
2022-09-14T04:08:47.837Z,100.00
2022-09-14T04:10:50.670Z,100.00
2022-09-14T04:12:54.738Z,100.00
2022-09-14T04:14:57.315Z,100.00
2022-09-14T04:17:00.083Z,100.00
2022-09-14T04:19:02.763Z,100.00
2022-09-14T04:21:08.644Z,100.00
2022-09-14T04:23:12.230Z,100.00
2022-09-14T04:25:14.863Z,100.00
2022-09-14T04:27:17.647Z,100.00
2022-09-14T04:29:21.615Z,100.00
2022-09-14T04:31:24.921Z,100.00
2022-09-14T04:33:30.919Z,100.00
2022-09-14T04:35:33.532Z,100.00
2022-09-14T04:37:36.136Z,100.00
2022-09-14T04:39:38.906Z,100.00
2022-09-14T04:41:41.663Z,100.00
2022-09-14T04:43:45.473Z,100.00
2022-09-14T04:45:49.783Z,100.00
2022-09-14T04:47:52.377Z,100.00
2022-09-14T04:49:55.014Z,100.00
2022-09-14T04:51:57.787Z,100.00
2022-09-14T04:54:02.091Z,100.00
2022-09-14T04:56:07.072Z,100.00
2022-09-14T04:58:09.665Z,100.00
2022-09-14T05:00:13.512Z,100.00
2022-09-14T05:02:17.566Z,100.00
2022-09-14T05:04:20.291Z,100.00
2022-09-14T05:06:24.943Z,100.00
2022-09-14T05:08:27.512Z,100.00
2022-09-14T05:10:30.123Z,100.00
2022-09-14T05:12:32.708Z,100.00
2022-09-14T05:14:35.305Z,100.00
2022-09-14T05:16:39.695Z,100.00
2022-09-14T05:18:44.573Z,100.00
2022-09-14T05:20:47.332Z,100.00
2022-09-14T05:22:51.160Z,100.00
2022-09-14T05:24:53.780Z,100.00
2022-09-14T05:27:00.233Z,100.00
2022-09-14T05:29:04.718Z,100.00
2022-09-14T05:31:09.278Z,100.00
2022-09-14T05:33:11.930Z,100.00
2022-09-14T05:35:16.156Z,100.00
2022-09-14T05:37:18.792Z,100.00
2022-09-14T05:39:23.407Z,100.00
2022-09-14T05:41:26.179Z,100.00
2022-09-14T05:43:30.284Z,100.00
2022-09-14T05:45:34.237Z,100.00
2022-09-14T05:47:39.163Z,100.00
2022-09-14T05:49:47.656Z,100.00
2022-09-14T05:51:51.623Z,100.00
2022-09-14T05:53:56.775Z,100.00
2022-09-14T05:56:03.812Z,100.00
2022-09-14T05:58:06.747Z,100.00
2022-09-14T06:00:10.769Z,100.00
2022-09-14T06:02:17.475Z,100.00
2022-09-14T06:04:20.634Z,100.00
2022-09-14T06:06:24.103Z,100.00
2022-09-14T06:08:28.241Z,100.00
2022-09-14T06:10:30.864Z,100.00
2022-09-14T06:12:33.511Z,100.00
2022-09-14T06:14:36.224Z,100.00
2022-09-14T06:16:38.855Z,100.00
2022-09-14T06:18:42.862Z,100.00
2022-09-14T06:20:51.218Z,100.00
2022-09-14T06:22:53.808Z,100.00
2022-09-14T06:24:57.811Z,100.00
2022-09-14T06:27:00.403Z,100.00
2022-09-14T06:29:04.137Z,100.00
2022-09-14T06:31:09.948Z,100.00
2022-09-14T06:33:12.611Z,100.00
2022-09-14T06:35:15.430Z,100.00
2022-09-14T06:37:18.053Z,100.00
2022-09-14T06:39:20.991Z,100.00
2022-09-14T06:41:29.018Z,100.00
2022-09-14T06:43:33.835Z,100.00
2022-09-14T06:45:37.338Z,100.00
2022-09-14T06:47:40.051Z,100.00
2022-09-14T06:49:42.642Z,100.00
2022-09-14T06:51:46.485Z,100.00
2022-09-14T06:53:50.365Z,100.00
2022-09-14T06:55:53.963Z,100.00
2022-09-14T06:57:57.974Z,100.00
2022-09-14T07:00:00.562Z,100.00
2022-09-14T07:02:03.595Z,100.00
2022-09-14T07:04:06.880Z,100.00
2022-09-14T07:06:11.529Z,100.00
2022-09-14T07:08:14.134Z,100.00
2022-09-14T07:10:16.839Z,100.00
2022-09-14T07:12:19.454Z,100.00
2022-09-14T07:14:23.686Z,100.00
2022-09-14T07:16:26.303Z,100.00
2022-09-14T07:18:32.780Z,100.00
2022-09-14T07:20:35.635Z,100.00
2022-09-14T07:22:38.310Z,100.00
2022-09-14T07:24:41.138Z,100.00
2022-09-14T07:26:43.904Z,100.00
2022-09-14T07:28:48.923Z,100.00
2022-09-14T07:30:57.049Z,100.00
2022-09-14T07:33:01.486Z,100.00
2022-09-14T07:35:05.145Z,100.00
2022-09-14T07:37:07.753Z,100.00
2022-09-14T07:39:12.418Z,100.00
2022-09-14T07:41:15.122Z,100.00
2022-09-14T07:43:17.769Z,100.00
2022-09-14T07:45:20.459Z,100.00
2022-09-14T07:47:24.407Z,100.00
2022-09-14T07:49:27.118Z,100.00
2022-09-14T07:51:30.991Z,100.00
2022-09-14T07:53:36.161Z,100.00
2022-09-14T07:55:39.579Z,100.00
2022-09-14T07:57:55.655Z,100.00
2022-09-14T07:59:59.910Z,100.00
2022-09-14T08:02:02.892Z,100.00
2022-09-14T08:04:07.866Z,100.00
2022-09-14T08:06:13.029Z,100.00
2022-09-14T08:08:15.701Z,100.00
2022-09-14T08:10:18.321Z,100.00
2022-09-14T08:12:20.955Z,100.00
2022-09-14T08:14:23.668Z,100.00
2022-09-14T08:16:27.848Z,100.00
2022-09-14T08:18:31.801Z,100.00
2022-09-14T08:20:36.384Z,100.00
2022-09-14T08:22:39.621Z,100.00
2022-09-14T08:24:42.464Z,100.00
2022-09-14T08:26:45.978Z,100.00
2022-09-14T08:28:50.519Z,100.00
2022-09-14T08:30:53.745Z,100.00
2022-09-14T08:32:58.949Z,100.00
2022-09-14T08:35:04.855Z,100.00
2022-09-14T08:37:10.697Z,100.00
2022-09-14T08:39:15.340Z,100.00
2022-09-14T08:41:27.121Z,100.00
2022-09-14T08:43:29.817Z,100.00
2022-09-14T08:45:32.517Z,100.00
2022-09-14T08:47:38.932Z,100.00
2022-09-14T08:49:47.437Z,100.00
2022-09-14T08:51:51.884Z,100.00
2022-09-14T08:53:59.359Z,100.00
2022-09-14T08:56:07.814Z,100.00
2022-09-14T08:58:24.244Z,100.00
2022-09-14T09:00:35.258Z,100.00
2022-09-14T09:02:51.017Z,100.00
2022-09-14T09:04:57.595Z,100.00
2022-09-14T09:07:08.743Z,97.28
2022-09-14T09:09:19.021Z,93.59
2022-09-14T09:11:25.228Z,89.46
2022-09-14T09:13:32.082Z,87.06
2022-09-14T09:15:38.291Z,87.81
2022-09-14T09:17:45.624Z,88.81
2022-09-14T09:19:57.624Z,81.73
2022-09-14T09:22:01.145Z,79.95
2022-09-14T09:24:16.949Z,78.48
2022-09-14T09:26:27.247Z,75.64
2022-09-14T09:28:31.029Z,72.33
2022-09-14T09:30:33.771Z,76.83
2022-09-14T09:32:38.287Z,77.12
2022-09-14T09:34:40.912Z,76.29
2022-09-14T09:36:47.667Z,75.07
2022-09-14T09:38:50.504Z,73.80
2022-09-14T09:40:55.870Z,75.49
2022-09-14T09:43:10.985Z,74.66
2022-09-14T09:45:13.644Z,73.07
2022-09-14T09:47:16.446Z,76.92
2022-09-14T09:49:23.852Z,76.52
2022-09-14T09:51:31.848Z,76.59
2022-09-14T09:53:37.831Z,76.20
2022-09-14T09:55:41.017Z,74.43
2022-09-14T09:57:43.657Z,75.93
2022-09-14T09:59:48.522Z,72.73
2022-09-14T10:01:52.283Z,76.28
2022-09-14T10:04:04.801Z,76.83
2022-09-14T10:06:10.195Z,77.40
2022-09-14T10:08:19.012Z,77.85
2022-09-14T10:10:26.750Z,80.80
2022-09-14T10:12:30.815Z,78.87
2022-09-14T10:14:34.799Z,76.95
2022-09-14T10:16:41.175Z,76.87
2022-09-14T10:18:48.986Z,82.73
2022-09-14T10:21:09.875Z,82.90
2022-09-14T10:23:26.348Z,84.26
2022-09-14T10:25:29.157Z,87.18
2022-09-14T10:27:40.678Z,87.22
2022-09-14T10:29:45.415Z,84.76
2022-09-14T10:31:51.063Z,83.65
2022-09-14T10:33:56.686Z,85.17
2022-09-14T10:36:10.384Z,84.71
2022-09-14T10:38:30.002Z,84.90
2022-09-14T10:40:37.658Z,83.40
2022-09-14T10:42:43.288Z,83.66
2022-09-14T10:45:05.704Z,83.20
2022-09-14T10:47:22.999Z,82.43
2022-09-14T10:49:41.081Z,84.30
2022-09-14T10:51:52.890Z,84.51
2022-09-14T10:54:02.312Z,85.46
2022-09-14T10:56:10.211Z,85.19
2022-09-14T10:58:25.249Z,85.33
2022-09-14T11:00:31.115Z,85.73
2022-09-14T11:03:09.158Z,82.89
2022-09-14T11:05:21.464Z,85.54
2022-09-14T11:07:33.711Z,85.18
2022-09-14T11:09:43.180Z,84.57
2022-09-14T11:11:54.840Z,82.46
2022-09-14T11:14:07.979Z,81.14
2022-09-14T11:16:24.635Z,80.05
2022-09-14T11:18:35.184Z,80.34
2022-09-14T11:20:47.827Z,78.64
2022-09-14T11:23:00.285Z,77.99
2022-09-14T11:25:11.374Z,78.76
2022-09-14T11:27:27.099Z,78.31
2022-09-14T11:29:33.969Z,78.50
2022-09-14T11:31:41.711Z,73.46
2022-09-14T11:33:53.808Z,76.43
2022-09-14T11:35:59.433Z,75.41
2022-09-14T11:38:08.583Z,74.96
2022-09-14T11:40:20.870Z,71.31
2022-09-14T11:42:27.241Z,69.91
2022-09-14T11:44:34.351Z,70.27
2022-09-14T11:46:40.480Z,69.48
2022-09-14T11:48:50.594Z,68.69
2022-09-14T11:50:58.553Z,68.16
2022-09-14T11:53:09.796Z,69.69
2022-09-14T11:55:18.078Z,70.79
2022-09-14T11:57:23.928Z,72.13
2022-09-14T11:59:36.241Z,71.45
2022-09-14T12:01:40.215Z,72.58
2022-09-14T12:03:54.498Z,72.54
2022-09-14T12:06:17.274Z,73.49
2022-09-14T12:08:39.629Z,73.17
2022-09-14T12:11:04.393Z,73.87
2022-09-14T12:13:20.965Z,74.72
2022-09-14T12:15:34.628Z,74.96
2022-09-14T12:17:40.359Z,75.00
2022-09-14T12:19:44.467Z,75.77
2022-09-14T12:21:47.214Z,75.26
2022-09-14T12:23:57.062Z,75.23
2022-09-14T12:26:04.277Z,75.41
2022-09-14T12:28:29.506Z,75.12
2022-09-14T12:30:55.747Z,76.30
2022-09-14T12:32:58.409Z,77.48
2022-09-14T12:35:38.746Z,78.60
2022-09-14T12:37:42.088Z,78.83
2022-09-14T12:40:18.407Z,78.45
2022-09-14T12:42:32.041Z,79.41
2022-09-14T12:44:38.442Z,80.66
2022-09-14T12:46:41.283Z,81.85
2022-09-14T12:49:02.632Z,82.82
2022-09-14T12:51:06.558Z,85.74
2022-09-14T12:53:22.452Z,86.95
2022-09-14T12:55:40.865Z,90.49
2022-09-14T12:57:52.490Z,98.29
2022-09-14T13:00:04.614Z,100.00
2022-09-14T13:02:41.645Z,100.00
2022-09-14T13:04:45.747Z,100.00
2022-09-14T13:06:49.534Z,100.00
2022-09-14T13:08:56.637Z,100.00
2022-09-14T13:10:59.325Z,100.00
2022-09-14T13:13:06.436Z,100.00
2022-09-14T13:15:19.232Z,100.00
2022-09-14T13:17:22.890Z,100.00
2022-09-14T13:19:28.711Z,100.00
2022-09-14T13:21:31.833Z,100.00
2022-09-14T13:23:40.490Z,100.00
2022-09-14T13:25:43.107Z,100.00
2022-09-14T13:27:50.332Z,100.00
2022-09-14T13:30:02.393Z,100.00
2022-09-14T13:32:05.180Z,100.00
2022-09-14T13:34:08.040Z,100.00
2022-09-14T13:36:10.819Z,100.00
2022-09-14T13:38:18.316Z,100.00
2022-09-14T13:40:24.649Z,100.00
2022-09-14T13:42:27.312Z,100.00
2022-09-14T13:44:32.683Z,100.00
2022-09-14T13:46:37.287Z,100.00
2022-09-14T13:48:42.611Z,100.00
2022-09-14T13:50:48.621Z,100.00
2022-09-14T13:53:01.662Z,100.00
2022-09-14T13:55:18.594Z,100.00
2022-09-14T13:57:24.177Z,100.00
2022-09-14T13:59:26.803Z,100.00
2022-09-14T14:01:30.548Z,100.00
2022-09-14T14:03:37.738Z,100.00
2022-09-14T14:05:43.596Z,100.00
2022-09-14T14:07:46.901Z,100.00
2022-09-14T14:09:52.497Z,100.00
2022-09-14T14:11:56.285Z,100.00
2022-09-14T14:14:15.062Z,100.00
2022-09-14T14:16:20.086Z,100.00
2022-09-14T14:18:44.369Z,100.00
2022-09-14T14:20:46.988Z,100.00
2022-09-14T14:23:00.526Z,100.00
2022-09-14T14:25:19.715Z,100.00
2022-09-14T14:27:32.022Z,100.00
2022-09-14T14:29:34.511Z,100.00
2022-09-14T14:31:37.149Z,100.00
2022-09-14T14:33:47.564Z,100.00
2022-09-14T14:35:53.503Z,100.00
2022-09-14T14:37:56.731Z,100.00
2022-09-14T14:39:59.427Z,100.00
2022-09-14T14:42:03.229Z,100.00
2022-09-14T14:44:07.429Z,100.00
2022-09-14T14:46:10.581Z,100.00
2022-09-14T14:48:13.702Z,100.00
2022-09-14T14:50:19.367Z,100.00
2022-09-14T14:52:21.993Z,100.00
2022-09-14T14:54:24.635Z,100.00
2022-09-14T14:56:28.136Z,100.00
2022-09-14T14:58:36.129Z,100.00
2022-09-14T15:00:39.380Z,100.00
2022-09-14T15:02:42.234Z,100.00
2022-09-14T15:04:44.830Z,100.00
2022-09-14T15:06:49.160Z,100.00
2022-09-14T15:08:54.296Z,100.00
2022-09-14T15:10:58.066Z,100.00
2022-09-14T15:13:00.686Z,100.00
2022-09-14T15:15:04.853Z,100.00
2022-09-14T15:17:07.442Z,100.00
2022-09-14T15:19:10.580Z,100.00
2022-09-14T15:21:13.189Z,100.00
2022-09-14T15:23:17.129Z,100.00
2022-09-14T15:25:21.164Z,100.00
2022-09-14T15:27:23.882Z,100.00
2022-09-14T15:29:26.513Z,100.00
2022-09-14T15:31:29.705Z,100.00
2022-09-14T15:33:32.445Z,100.00
2022-09-14T15:35:35.079Z,100.00
2022-09-14T15:37:37.718Z,100.00
2022-09-14T15:39:46.074Z,100.00
2022-09-14T15:41:51.375Z,100.00
2022-09-14T15:43:53.932Z,100.00
2022-09-14T15:45:56.632Z,100.00
2022-09-14T15:47:59.294Z,100.00
2022-09-14T15:50:01.913Z,100.00
2022-09-14T15:52:04.948Z,100.00
2022-09-14T15:54:07.554Z,100.00
2022-09-14T15:56:12.850Z,100.00
2022-09-14T15:58:15.506Z,100.00
2022-09-14T16:00:19.444Z,100.00
2022-09-14T16:02:22.092Z,100.00
2022-09-14T16:04:24.918Z,100.00
2022-09-14T16:06:28.756Z,100.00
2022-09-14T16:08:31.671Z,100.00
2022-09-14T16:10:34.506Z,100.00
2022-09-14T16:12:38.481Z,100.00
2022-09-14T16:14:41.206Z,100.00
2022-09-14T16:16:43.879Z,100.00
2022-09-14T16:18:47.111Z,100.00
2022-09-14T16:20:49.701Z,100.00
2022-09-14T16:22:52.438Z,100.00
2022-09-14T16:24:55.028Z,100.00
2022-09-14T16:26:58.756Z,100.00
2022-09-14T16:29:03.321Z,100.00
2022-09-14T16:31:08.025Z,100.00
2022-09-14T16:33:10.637Z,100.00
2022-09-14T16:35:13.241Z,100.00
2022-09-14T16:37:16.760Z,100.00
2022-09-14T16:39:22.406Z,100.00
2022-09-14T16:41:25.453Z,100.00
2022-09-14T16:43:29.944Z,100.00
2022-09-14T16:45:33.969Z,100.00
2022-09-14T16:47:37.519Z,100.00
2022-09-14T16:49:40.276Z,100.00
2022-09-14T16:51:43.392Z,100.00
2022-09-14T16:53:47.370Z,100.00
2022-09-14T16:55:49.986Z,100.00
2022-09-14T16:57:52.620Z,100.00
2022-09-14T16:59:55.459Z,100.00
2022-09-14T17:01:59.734Z,100.00
2022-09-14T17:04:08.177Z,100.00
2022-09-14T17:06:13.878Z,100.00
2022-09-14T17:08:16.520Z,100.00
2022-09-14T17:10:19.135Z,100.00
2022-09-14T17:12:21.708Z,100.00
2022-09-14T17:14:26.980Z,100.00
2022-09-14T17:16:30.566Z,100.00
2022-09-14T17:18:36.154Z,100.00
2022-09-14T17:20:38.711Z,100.00
2022-09-14T17:22:41.354Z,100.00
2022-09-14T17:24:43.979Z,100.00
2022-09-14T17:26:47.672Z,100.00
2022-09-14T17:28:52.011Z,100.00
2022-09-14T17:30:56.564Z,100.00
2022-09-14T17:32:59.162Z,100.00
2022-09-14T17:35:03.659Z,100.00
2022-09-14T17:37:06.504Z,100.00
2022-09-14T17:39:11.971Z,100.00
2022-09-14T17:41:17.870Z,100.00
2022-09-14T17:43:21.178Z,100.00
2022-09-14T17:45:23.776Z,100.00
2022-09-14T17:47:26.399Z,100.00
2022-09-14T17:49:29.047Z,100.00
2022-09-14T17:51:36.286Z,100.00
2022-09-14T17:53:40.004Z,100.00
2022-09-14T17:55:43.200Z,100.00
2022-09-14T17:57:46.167Z,100.00
2022-09-14T17:59:49.043Z,100.00
2022-09-14T18:01:51.641Z,100.00
2022-09-14T18:03:57.078Z,100.00
2022-09-14T18:05:59.741Z,100.00
2022-09-14T18:08:03.953Z,100.00
2022-09-14T18:10:07.401Z,100.00
2022-09-14T18:12:10.335Z,100.00
2022-09-14T18:14:14.297Z,100.00
2022-09-14T18:16:18.993Z,100.00
2022-09-14T18:18:21.617Z,100.00
2022-09-14T18:20:24.189Z,100.00
2022-09-14T18:22:27.174Z,100.00
2022-09-14T18:24:31.279Z,100.00
2022-09-14T18:26:34.172Z,100.00
2022-09-14T18:28:37.357Z,100.00
2022-09-14T18:30:43.497Z,100.00
2022-09-14T18:32:47.001Z,100.00
2022-09-14T18:34:49.623Z,100.00
2022-09-14T18:36:52.657Z,100.00
2022-09-14T18:38:55.343Z,100.00
2022-09-14T18:41:04.967Z,100.00
2022-09-14T18:43:07.586Z,100.00
2022-09-14T18:45:11.120Z,100.00
2022-09-14T18:47:13.744Z,100.00
2022-09-14T18:49:16.348Z,100.00
2022-09-14T18:51:18.960Z,100.00
2022-09-14T18:53:21.556Z,100.00
2022-09-14T18:55:24.748Z,100.00
2022-09-14T18:57:28.904Z,100.00
2022-09-14T18:59:31.484Z,100.00
2022-09-14T19:01:35.036Z,100.00
2022-09-14T19:03:39.205Z,100.00
2022-09-14T19:05:42.975Z,100.00
2022-09-14T19:07:45.712Z,100.00
2022-09-14T19:09:48.407Z,100.00
2022-09-14T19:11:51.043Z,100.00
2022-09-14T19:13:58.357Z,100.00
2022-09-14T19:16:07.240Z,100.00
2022-09-14T19:18:12.654Z,100.00
2022-09-14T19:20:15.552Z,100.00
2022-09-14T19:22:18.155Z,100.00
2022-09-14T19:24:20.956Z,100.00
2022-09-14T19:26:23.576Z,100.00
2022-09-14T19:28:26.173Z,100.00
2022-09-14T19:30:30.162Z,100.00
2022-09-14T19:32:32.764Z,100.00
2022-09-14T19:34:36.278Z,100.00
2022-09-14T19:36:38.856Z,100.00
2022-09-14T19:38:41.641Z,100.00
2022-09-14T19:40:51.867Z,100.00
2022-09-14T19:42:55.252Z,100.00
2022-09-14T19:44:57.908Z,100.00
2022-09-14T19:47:02.559Z,100.00
2022-09-14T19:49:05.438Z,100.00
2022-09-14T19:51:09.823Z,100.00
2022-09-14T19:53:12.930Z,100.00
2022-09-14T19:55:15.558Z,100.00
2022-09-14T19:57:18.164Z,100.00
2022-09-14T19:59:20.885Z,100.00
2022-09-14T20:01:25.491Z,100.00
2022-09-14T20:03:29.598Z,100.00
2022-09-14T20:05:32.214Z,100.00
2022-09-14T20:07:34.786Z,100.00
2022-09-14T20:09:38.362Z,100.00
2022-09-14T20:11:43.042Z,100.00
2022-09-14T20:13:45.833Z,100.00
2022-09-14T20:15:48.548Z,100.00
2022-09-14T20:17:55.258Z,100.00
2022-09-14T20:19:59.194Z,100.00
2022-09-14T20:22:01.761Z,100.00
2022-09-14T20:24:21.770Z,100.00
2022-09-14T20:26:25.922Z,100.00
2022-09-14T20:28:28.553Z,100.00
2022-09-14T20:30:31.204Z,100.00
2022-09-14T20:32:33.833Z,100.00
2022-09-14T20:34:36.408Z,100.00
2022-09-14T20:36:41.239Z,100.00
2022-09-14T20:38:49.644Z,100.00
2022-09-14T20:40:56.681Z,100.00
2022-09-14T20:42:59.319Z,100.00
2022-09-14T20:45:01.923Z,100.00
2022-09-14T20:47:04.594Z,100.00
2022-09-14T20:49:10.080Z,100.00
2022-09-14T20:51:16.081Z,100.00
2022-09-14T20:53:22.616Z,100.00
2022-09-14T20:55:25.917Z,100.00
2022-09-14T20:57:28.508Z,100.00
2022-09-14T20:59:31.405Z,100.00
2022-09-14T21:01:38.839Z,100.00
2022-09-14T21:03:42.882Z,100.00
2022-09-14T21:05:46.338Z,100.00
2022-09-14T21:07:56.144Z,100.00
2022-09-14T21:10:00.429Z,100.00
2022-09-14T21:12:03.525Z,100.00
2022-09-14T21:14:06.950Z,100.00
2022-09-14T21:16:11.518Z,100.00
2022-09-14T21:18:17.563Z,100.00
2022-09-14T21:20:22.629Z,100.00
2022-09-14T21:22:25.198Z,100.00
2022-09-14T21:24:27.821Z,100.00
2022-09-14T21:26:34.031Z,100.00
2022-09-14T21:28:38.632Z,100.00
2022-09-14T21:30:41.220Z,100.00
2022-09-14T21:32:48.231Z,100.00
2022-09-14T21:34:50.927Z,100.00
2022-09-14T21:36:53.950Z,100.00
2022-09-14T21:38:57.975Z,100.00
2022-09-14T21:41:00.834Z,100.00
2022-09-14T21:43:04.807Z,100.00
2022-09-14T21:45:08.197Z,100.00
2022-09-14T21:47:10.812Z,100.00
2022-09-14T21:49:15.801Z,100.00
2022-09-14T21:51:19.891Z,100.00
2022-09-14T21:53:22.482Z,100.00
2022-09-14T21:55:25.162Z,100.00
2022-09-14T21:57:27.744Z,100.00
2022-09-14T21:59:31.673Z,100.00
2022-09-14T22:01:34.680Z,100.00
2022-09-14T22:03:37.832Z,100.00
2022-09-14T22:05:40.631Z,100.00
2022-09-14T22:07:43.934Z,100.00
2022-09-14T22:09:46.569Z,100.00
2022-09-14T22:11:49.318Z,100.00
2022-09-14T22:13:54.986Z,100.00
2022-09-14T22:15:59.089Z,100.00
2022-09-14T22:18:02.475Z,100.00
2022-09-14T22:20:05.668Z,100.00
2022-09-14T22:22:08.441Z,100.00
2022-09-14T22:24:13.220Z,100.00
2022-09-14T22:26:16.547Z,100.00
2022-09-14T22:28:19.235Z,100.00
2022-09-14T22:30:22.099Z,100.00
2022-09-14T22:32:26.062Z,100.00
2022-09-14T22:34:29.635Z,100.00
2022-09-14T22:36:32.489Z,100.00
2022-09-14T22:38:35.682Z,100.00
2022-09-14T22:40:38.391Z,100.00
2022-09-14T22:42:40.995Z,100.00
2022-09-14T22:44:43.554Z,100.00
2022-09-14T22:46:46.470Z,100.00
2022-09-14T22:48:51.267Z,100.00
2022-09-14T22:50:57.459Z,100.00
2022-09-14T22:53:00.022Z,100.00
2022-09-14T22:55:02.632Z,100.00
2022-09-14T22:57:05.247Z,100.00
2022-09-14T22:59:10.408Z,100.00
2022-09-14T23:01:16.234Z,100.00
2022-09-14T23:03:19.415Z,100.00
2022-09-14T23:05:23.354Z,100.00
2022-09-14T23:07:25.983Z,100.00
2022-09-14T23:09:28.646Z,100.00
2022-09-14T23:11:31.661Z,100.00
2022-09-14T23:13:36.589Z,100.00
2022-09-14T23:15:39.817Z,100.00
2022-09-14T23:17:42.398Z,100.00
2022-09-14T23:19:44.938Z,100.00
2022-09-14T23:21:48.874Z,100.00
2022-09-14T23:23:52.919Z,100.00
2022-09-14T23:25:55.766Z,100.00
2022-09-14T23:27:58.356Z,100.00
2022-09-14T23:30:00.963Z,100.00
2022-09-14T23:32:04.029Z,100.00
2022-09-14T23:34:06.874Z,100.00
2022-09-14T23:36:09.643Z,100.00
2022-09-14T23:38:13.588Z,100.00
2022-09-14T23:40:18.249Z,100.00
2022-09-14T23:42:20.900Z,100.00
2022-09-14T23:44:23.731Z,100.00
2022-09-14T23:46:26.693Z,100.00
2022-09-14T23:48:29.439Z,100.00
2022-09-14T23:50:32.052Z,100.00
2022-09-14T23:52:34.621Z,100.00
2022-09-14T23:54:38.548Z,100.00
2022-09-14T23:56:41.387Z,100.00
2022-09-14T23:58:44.741Z,100.00
